createdAt,value
2023-03-11T00:00:46.957Z,97723.00
2023-03-11T00:03:23.148Z,97720.88
2023-03-11T00:05:53.835Z,97727.22
2023-03-11T00:08:25.639Z,97729.91
2023-03-11T00:10:56.464Z,97721.59
2023-03-11T00:13:23.862Z,97711.13
2023-03-11T00:15:55.741Z,97725.38
2023-03-11T00:18:26.782Z,97724.88
2023-03-11T00:20:56.241Z,97720.31
2023-03-11T00:23:24.584Z,97724.63
2023-03-11T00:25:51.920Z,97718.69
2023-03-11T00:28:19.145Z,97714.97
2023-03-11T00:30:47.274Z,97712.31
2023-03-11T00:33:16.033Z,97711.50
2023-03-11T00:35:43.986Z,97720.34
2023-03-11T00:38:20.501Z,97730.25
2023-03-11T00:40:49.206Z,97729.44
2023-03-11T00:43:17.781Z,97730.28
2023-03-11T00:45:44.952Z,97758.16
2023-03-11T00:48:13.763Z,97747.13
2023-03-11T00:50:41.048Z,97746.13
2023-03-11T00:53:08.886Z,97767.59
2023-03-11T00:55:36.272Z,97786.09
2023-03-11T00:58:06.165Z,97777.78
2023-03-11T01:00:34.975Z,97777.22
2023-03-11T01:03:02.197Z,97801.88
2023-03-11T01:05:33.347Z,97775.13
2023-03-11T01:08:01.275Z,97787.75
2023-03-11T01:10:30.574Z,97783.19
2023-03-11T01:12:57.333Z,97789.38
2023-03-11T01:15:33.899Z,97789.13
2023-03-11T01:18:02.073Z,97799.56
2023-03-11T01:20:29.148Z,97807.63
2023-03-11T01:22:56.377Z,97801.69
2023-03-11T01:25:25.257Z,97800.34
2023-03-11T01:27:52.137Z,97798.16
2023-03-11T01:30:25.521Z,97801.94
2023-03-11T01:32:55.231Z,97812.66
2023-03-11T01:35:24.586Z,97799.22
2023-03-11T01:37:52.514Z,97806.50
2023-03-11T01:40:24.701Z,97788.84
2023-03-11T01:42:51.780Z,97798.25
2023-03-11T01:45:36.305Z,97805.25
2023-03-11T01:48:03.392Z,97791.91
2023-03-11T01:50:41.141Z,97786.56
2023-03-11T01:53:09.761Z,97799.44
2023-03-11T01:55:37.380Z,97798.66
2023-03-11T01:58:10.920Z,97797.34
2023-03-11T02:00:38.760Z,97786.63
2023-03-11T02:03:21.750Z,97798.41
2023-03-11T02:05:50.132Z,97806.16
2023-03-11T02:08:17.229Z,97830.56
2023-03-11T02:10:45.720Z,97813.16
2023-03-11T02:13:12.972Z,97831.13
2023-03-11T02:15:40.630Z,97823.06
2023-03-11T02:18:09.277Z,97829.50
2023-03-11T02:20:58.004Z,97808.88
2023-03-11T02:23:37.086Z,97826.56
2023-03-11T02:26:33.606Z,97842.41
2023-03-11T02:29:04.908Z,97836.00
2023-03-11T02:31:33.826Z,97832.75
2023-03-11T02:34:05.645Z,97819.63
2023-03-11T02:36:41.637Z,97828.75
2023-03-11T02:39:09.782Z,97810.31
2023-03-11T02:41:45.814Z,97814.88
2023-03-11T02:44:15.780Z,97826.66
2023-03-11T02:46:43.357Z,97818.63
2023-03-11T02:49:11.295Z,97810.88
2023-03-11T02:51:38.478Z,97805.50
2023-03-11T02:54:06.414Z,97825.88
2023-03-11T02:56:33.320Z,97819.41
2023-03-11T02:59:00.170Z,97824.22
2023-03-11T03:01:27.140Z,97834.97
2023-03-11T03:03:54.342Z,97831.22
2023-03-11T03:06:21.907Z,97848.88
2023-03-11T03:08:48.717Z,97855.28
2023-03-11T03:11:15.681Z,97852.06
2023-03-11T03:13:42.738Z,97855.81
2023-03-11T03:16:09.669Z,97850.75
2023-03-11T03:18:39.279Z,97849.94
2023-03-11T03:21:06.231Z,97848.63
2023-03-11T03:23:35.176Z,97839.25
2023-03-11T03:26:02.470Z,97839.78
2023-03-11T03:28:32.416Z,97845.44
2023-03-11T03:31:10.619Z,97838.19
2023-03-11T03:33:37.888Z,97843.81
2023-03-11T03:36:14.063Z,97847.81
2023-03-11T03:38:41.420Z,97856.94
2023-03-11T03:41:09.517Z,97858.53
2023-03-11T03:43:36.513Z,97872.44
2023-03-11T03:46:05.825Z,97880.75
2023-03-11T03:48:33.494Z,97887.44
2023-03-11T03:51:11.174Z,97892.78
2023-03-11T03:53:38.487Z,97890.41
2023-03-11T03:56:11.658Z,97897.88
2023-03-11T03:58:39.060Z,97893.31
2023-03-11T04:01:06.959Z,97896.81
2023-03-11T04:03:39.526Z,97889.56
2023-03-11T04:06:21.480Z,97902.94
2023-03-11T04:08:49.057Z,97904.00
2023-03-11T04:11:15.862Z,97908.56
2023-03-11T04:13:44.572Z,97899.47
2023-03-11T04:16:19.986Z,97893.59
2023-03-11T04:18:48.202Z,97898.66
2023-03-11T04:21:15.066Z,97910.44
2023-03-11T04:23:42.202Z,97898.41
2023-03-11T04:26:09.071Z,97892.78
2023-03-11T04:28:35.936Z,97898.94
2023-03-11T04:31:02.994Z,97896.25
2023-03-11T04:33:29.991Z,97889.56
2023-03-11T04:35:57.428Z,97893.06
2023-03-11T04:38:24.882Z,97900.00
2023-03-11T04:40:51.995Z,97902.69
2023-03-11T04:43:19.099Z,97903.22
2023-03-11T04:45:50.130Z,97902.09
2023-03-11T04:48:16.939Z,97906.34
2023-03-11T04:50:43.693Z,97904.50
2023-03-11T04:53:10.477Z,97903.13
2023-03-11T04:55:37.900Z,97903.97
2023-03-11T04:58:05.488Z,97902.38
2023-03-11T05:00:32.340Z,97914.91
2023-03-11T05:02:59.407Z,97923.75
2023-03-11T05:05:26.244Z,97920.53
2023-03-11T05:07:53.073Z,97919.72
2023-03-11T05:10:22.495Z,97910.94
2023-03-11T05:12:52.762Z,97912.78
2023-03-11T05:15:19.941Z,97916.00
2023-03-11T05:17:52.713Z,97907.19
2023-03-11T05:20:19.585Z,97915.44
2023-03-11T05:22:46.321Z,97921.06
2023-03-11T05:25:13.156Z,97929.88
2023-03-11T05:27:40.328Z,97920.00
2023-03-11T05:30:08.652Z,97934.69
2023-03-11T05:32:35.444Z,97931.25
2023-03-11T05:35:02.307Z,97936.03
2023-03-11T05:37:32.136Z,97928.00
2023-03-11T05:39:59.098Z,97928.25
2023-03-11T05:42:25.875Z,97929.63
2023-03-11T05:44:52.716Z,97933.34
2023-03-11T05:47:19.522Z,97933.91
2023-03-11T05:49:48.774Z,97933.88
2023-03-11T05:52:16.523Z,97940.84
2023-03-11T05:54:43.413Z,97944.56
2023-03-11T05:57:10.340Z,97946.44
2023-03-11T05:59:37.821Z,97947.25
2023-03-11T06:02:04.912Z,97950.19
2023-03-11T06:04:35.035Z,97936.28
2023-03-11T06:07:02.231Z,97942.72
2023-03-11T06:09:29.336Z,97931.22
2023-03-11T06:11:56.273Z,97941.59
2023-03-11T06:14:23.104Z,97947.22
2023-03-11T06:16:49.873Z,97942.44
2023-03-11T06:19:16.691Z,97951.22
2023-03-11T06:21:43.508Z,97954.16
2023-03-11T06:24:10.281Z,97964.84
2023-03-11T06:26:37.079Z,97968.31
2023-03-11T06:29:12.370Z,97969.66
2023-03-11T06:31:40.093Z,97975.00
2023-03-11T06:34:07.053Z,97973.44
2023-03-11T06:36:33.929Z,97986.25
2023-03-11T06:39:00.847Z,97987.38
2023-03-11T06:41:27.667Z,97991.34
2023-03-11T06:43:54.568Z,97992.97
2023-03-11T06:46:23.111Z,97997.56
2023-03-11T06:48:52.179Z,97999.97
2023-03-11T06:51:23.308Z,97996.00
2023-03-11T06:53:52.845Z,97997.84
2023-03-11T06:56:22.317Z,97989.56
2023-03-11T06:58:49.928Z,97994.41
2023-03-11T07:01:20.853Z,98012.88
2023-03-11T07:03:49.576Z,97998.72
2023-03-11T07:06:21.215Z,98010.50
2023-03-11T07:08:50.448Z,98012.66
2023-03-11T07:11:22.544Z,98006.25
2023-03-11T07:13:50.400Z,98006.75
2023-03-11T07:16:21.649Z,98014.28
2023-03-11T07:18:52.588Z,98024.22
2023-03-11T07:21:23.003Z,98025.53
2023-03-11T07:23:55.497Z,98031.72
2023-03-11T07:26:26.977Z,98041.03
2023-03-11T07:28:55.986Z,98037.84
2023-03-11T07:31:30.264Z,98043.47
2023-03-11T07:34:04.779Z,98052.31
2023-03-11T07:36:32.610Z,98051.78
2023-03-11T07:39:04.644Z,98064.66
2023-03-11T07:41:34.831Z,98058.53
2023-03-11T07:44:04.669Z,98062.03
2023-03-11T07:46:32.300Z,98058.53
2023-03-11T07:49:00.425Z,98065.78
2023-03-11T07:51:30.983Z,98063.66
2023-03-11T07:54:00.447Z,98077.03
2023-03-11T07:56:31.944Z,98073.28
2023-03-11T07:59:00.916Z,98084.00
2023-03-11T08:01:35.954Z,98077.03
2023-03-11T08:04:06.383Z,98084.56
2023-03-11T08:06:35.284Z,98092.31
2023-03-11T08:09:07.076Z,98082.41
2023-03-11T08:11:33.920Z,98094.75
2023-03-11T08:14:01.115Z,98094.75
2023-03-11T08:16:28.522Z,98093.09
2023-03-11T08:18:55.819Z,98099.53
2023-03-11T08:21:26.588Z,98093.63
2023-03-11T08:23:58.989Z,98095.72
2023-03-11T08:26:26.406Z,98103.19
2023-03-11T08:28:54.797Z,98101.31
2023-03-11T08:31:33.663Z,98109.75
2023-03-11T08:34:08.579Z,98101.56
2023-03-11T08:36:35.815Z,98108.84
2023-03-11T08:39:03.445Z,98101.41
2023-03-11T08:41:30.511Z,98111.63
2023-03-11T08:43:57.498Z,98109.69
2023-03-11T08:46:32.740Z,98106.41
2023-03-11T08:49:06.211Z,98110.75
2023-03-11T08:51:35.081Z,98112.00
2023-03-11T08:54:02.948Z,98114.28
2023-03-11T08:56:30.294Z,98118.66
2023-03-11T08:58:57.270Z,98123.97
2023-03-11T09:01:24.204Z,98122.38
2023-03-11T09:03:51.750Z,98111.91
2023-03-11T09:06:19.398Z,98119.03
2023-03-11T09:08:48.387Z,98120.38
2023-03-11T09:11:18.715Z,98126.16
2023-03-11T09:13:45.573Z,98122.63
2023-03-11T09:16:19.863Z,98137.59
2023-03-11T09:18:49.005Z,98141.59
2023-03-11T09:21:16.126Z,98139.72
2023-03-11T09:23:44.532Z,98132.25
2023-03-11T09:26:12.613Z,98135.63
2023-03-11T09:28:41.147Z,98126.59
2023-03-11T09:31:09.595Z,98121.31
2023-03-11T09:33:42.002Z,98121.25
2023-03-11T09:36:17.963Z,98128.19
2023-03-11T09:38:45.778Z,98131.28
2023-03-11T09:41:33.522Z,98115.69
2023-03-11T09:44:18.602Z,98120.56
2023-03-11T09:47:26.418Z,98119.84
2023-03-11T09:50:18.222Z,98125.00
2023-03-11T09:53:14.226Z,98121.00
2023-03-11T09:55:53.451Z,98121.91
2023-03-11T09:58:35.757Z,98116.91
2023-03-11T10:01:26.339Z,98125.50
2023-03-11T10:03:57.530Z,98121.69
2023-03-11T10:06:29.102Z,98123.03
2023-03-11T10:09:33.656Z,98123.41
2023-03-11T10:12:16.908Z,98120.44
2023-03-11T10:15:39.330Z,98121.53
2023-03-11T10:18:53.605Z,98120.78
2023-03-11T10:21:29.944Z,98112.66
2023-03-11T10:24:30.831Z,98122.66
2023-03-11T10:27:13.090Z,98119.47
2023-03-11T10:30:20.815Z,98117.03
2023-03-11T10:33:26.692Z,98120.53
2023-03-11T10:35:58.973Z,98114.34
2023-03-11T10:38:35.292Z,98106.78
2023-03-11T10:41:44.377Z,98108.91
2023-03-11T10:44:34.281Z,98114.13
2023-03-11T10:47:02.209Z,98114.28
2023-03-11T10:49:29.846Z,98108.50
2023-03-11T10:51:57.600Z,98123.53
2023-03-11T10:54:35.857Z,98110.69
2023-03-11T10:57:19.369Z,98120.44
2023-03-11T10:59:52.381Z,98124.41
2023-03-11T11:02:58.113Z,98127.56
2023-03-11T11:05:35.688Z,98125.81
2023-03-11T11:08:16.984Z,98127.91
2023-03-11T11:10:55.391Z,98130.88
2023-03-11T11:13:34.171Z,98131.09
2023-03-11T11:16:21.062Z,98128.59
2023-03-11T11:19:08.180Z,98124.59
2023-03-11T11:21:41.460Z,98121.34
2023-03-11T11:24:26.040Z,98123.69
2023-03-11T11:27:11.761Z,98122.25
2023-03-11T11:29:38.953Z,98121.56
2023-03-11T11:32:25.458Z,98117.75
2023-03-11T11:35:17.017Z,98115.53
2023-03-11T11:37:54.760Z,98109.19
2023-03-11T11:40:31.643Z,98109.75
2023-03-11T11:43:18.557Z,98115.44
2023-03-11T11:46:00.463Z,98115.59
2023-03-11T11:48:47.255Z,98109.50
2023-03-11T11:51:26.289Z,98104.03
2023-03-11T11:54:17.445Z,98099.47
2023-03-11T11:56:45.947Z,98096.28
2023-03-11T11:59:20.026Z,98095.06
2023-03-11T12:02:05.049Z,98094.38
2023-03-11T12:05:08.502Z,98088.13
2023-03-11T12:08:03.590Z,98089.03
2023-03-11T12:10:52.234Z,98092.50
2023-03-11T12:13:22.305Z,98071.09
2023-03-11T12:15:58.098Z,98074.03
2023-03-11T12:18:39.456Z,98068.22
2023-03-11T12:21:44.911Z,98071.72
2023-03-11T12:24:38.443Z,98067.34
2023-03-11T12:27:26.361Z,98071.06
2023-03-11T12:29:57.790Z,98068.75
2023-03-11T12:32:41.645Z,98075.31
2023-03-11T12:35:51.050Z,98082.06
2023-03-11T12:38:38.769Z,98079.44
2023-03-11T12:41:33.762Z,98069.53
2023-03-11T12:44:23.937Z,98076.25
2023-03-11T12:47:00.010Z,98069.16
2023-03-11T12:49:34.655Z,98070.38
2023-03-11T12:52:17.266Z,98071.13
2023-03-11T12:54:49.113Z,98074.66
2023-03-11T12:57:19.081Z,98078.28
2023-03-11T13:00:23.041Z,98068.13
2023-03-11T13:03:37.416Z,98066.28
2023-03-11T13:06:55.640Z,98079.44
2023-03-11T13:09:24.228Z,98064.50
2023-03-11T13:11:53.904Z,98058.75
2023-03-11T13:14:34.049Z,98062.75
2023-03-11T13:17:26.850Z,98057.38
2023-03-11T13:20:00.014Z,98053.50
2023-03-11T13:22:56.166Z,98066.03
2023-03-11T13:26:04.517Z,98063.59
2023-03-11T13:28:46.263Z,98065.53
2023-03-11T13:31:52.076Z,98062.63
2023-03-11T13:35:13.034Z,98041.56
2023-03-11T13:38:17.398Z,98061.88
2023-03-11T13:40:46.822Z,98064.50
2023-03-11T13:43:23.509Z,98072.81
2023-03-11T13:46:00.680Z,98072.38
2023-03-11T13:48:37.627Z,98072.19
2023-03-11T13:51:07.625Z,98084.06
2023-03-11T13:53:48.070Z,98082.00
2023-03-11T13:56:35.823Z,98080.78
2023-03-11T13:59:24.456Z,98083.13
2023-03-11T14:01:54.912Z,98073.25
2023-03-11T14:04:32.536Z,98083.81
2023-03-11T14:07:02.949Z,98089.28
2023-03-11T14:09:29.805Z,98094.50
2023-03-11T14:12:07.769Z,98084.47
2023-03-11T14:15:00.948Z,98068.78
2023-03-11T14:17:27.750Z,98058.50
2023-03-11T14:20:07.877Z,98061.03
2023-03-11T14:22:35.164Z,98073.25
2023-03-11T14:25:08.741Z,98064.78
2023-03-11T14:27:39.257Z,98071.41
2023-03-11T14:30:09.275Z,98061.78
2023-03-11T14:32:38.546Z,98065.78
2023-03-11T14:35:22.216Z,98080.56
2023-03-11T14:37:48.998Z,98072.13
2023-03-11T14:40:37.707Z,98068.50
2023-03-11T14:43:08.071Z,98077.47
2023-03-11T14:45:41.114Z,98066.00
2023-03-11T14:48:41.846Z,98074.16
2023-03-11T14:51:26.456Z,98062.81
2023-03-11T14:54:17.526Z,98064.88
2023-03-11T14:56:55.050Z,98074.28
2023-03-11T14:59:34.984Z,98080.91
2023-03-11T15:02:34.719Z,98095.75
2023-03-11T15:05:20.956Z,98085.03
2023-03-11T15:07:51.698Z,98090.53
2023-03-11T15:10:18.645Z,98085.94
2023-03-11T15:12:49.676Z,98095.78
2023-03-11T15:15:29.069Z,98098.22
2023-03-11T15:18:01.810Z,98099.84
2023-03-11T15:20:37.784Z,98102.19
2023-03-11T15:23:07.604Z,98101.59
2023-03-11T15:25:38.452Z,98096.44
2023-03-11T15:28:36.399Z,98104.50
2023-03-11T15:31:22.535Z,98108.91
2023-03-11T15:33:54.276Z,98108.19
2023-03-11T15:36:40.104Z,98112.66
2023-03-11T15:39:29.218Z,98113.47
2023-03-11T15:42:03.451Z,98115.28
2023-03-11T15:44:36.835Z,98114.69
2023-03-11T15:47:04.535Z,98116.28
2023-03-11T15:49:31.853Z,98124.00
2023-03-11T15:52:00.423Z,98119.63
2023-03-11T15:54:28.573Z,98124.75
2023-03-11T15:56:58.388Z,98119.44
2023-03-11T15:59:29.667Z,98115.81
2023-03-11T16:01:56.912Z,98116.94
2023-03-11T16:04:24.096Z,98111.53
2023-03-11T16:07:07.149Z,98116.94
2023-03-11T16:09:37.940Z,98116.94
2023-03-11T16:12:23.361Z,98122.34
2023-03-11T16:14:51.050Z,98122.94
2023-03-11T16:17:18.998Z,98118.94
2023-03-11T16:19:49.736Z,98122.34
2023-03-11T16:22:32.779Z,98129.16
2023-03-11T16:25:02.114Z,98122.34
2023-03-11T16:27:32.304Z,98128.03
2023-03-11T16:29:59.086Z,98130.75
2023-03-11T16:32:29.255Z,98129.75
2023-03-11T16:34:56.160Z,98138.53
2023-03-11T16:37:22.891Z,98137.75
2023-03-11T16:39:49.693Z,98145.63
2023-03-11T16:42:23.721Z,98145.50
2023-03-11T16:44:53.402Z,98140.09
2023-03-11T16:47:20.176Z,98132.69
2023-03-11T16:49:50.584Z,98145.09
2023-03-11T16:52:20.806Z,98142.06
2023-03-11T16:54:48.101Z,98142.47
2023-03-11T16:57:15.173Z,98144.25
2023-03-11T16:59:45.431Z,98145.63
2023-03-11T17:02:12.574Z,98148.91
2023-03-11T17:04:39.492Z,98159.69
2023-03-11T17:07:08.240Z,98169.72
2023-03-11T17:09:36.872Z,98173.78
2023-03-11T17:12:04.760Z,98176.97
2023-03-11T17:14:32.494Z,98181.69
2023-03-11T17:17:00.035Z,98185.56
2023-03-11T17:19:26.872Z,98188.31
2023-03-11T17:21:53.622Z,98175.94
2023-03-11T17:24:20.611Z,98194.13
2023-03-11T17:26:47.513Z,98196.75
2023-03-11T17:29:15.132Z,98196.19
2023-03-11T17:31:42.163Z,98205.38
2023-03-11T17:34:09.234Z,98211.13
2023-03-11T17:36:36.236Z,98205.44
2023-03-11T17:39:03.356Z,98209.59
2023-03-11T17:41:30.207Z,98214.09
2023-03-11T17:43:57.044Z,98212.81
2023-03-11T17:46:28.011Z,98218.00
2023-03-11T17:48:54.856Z,98228.84
2023-03-11T17:51:25.826Z,98238.28
2023-03-11T17:53:55.672Z,98238.03
2023-03-11T17:56:23.737Z,98242.13
2023-03-11T17:58:51.135Z,98253.22
2023-03-11T18:01:25.461Z,98248.06
2023-03-11T18:03:53.279Z,98253.59
2023-03-11T18:06:22.145Z,98255.81
2023-03-11T18:08:49.949Z,98264.25
2023-03-11T18:11:21.964Z,98268.31
2023-03-11T18:13:50.242Z,98276.97
2023-03-11T18:16:24.879Z,98277.47
2023-03-11T18:18:52.677Z,98275.78
2023-03-11T18:21:29.562Z,98283.91
2023-03-11T18:24:00.276Z,98283.44
2023-03-11T18:26:29.983Z,98284.03
2023-03-11T18:28:59.026Z,98290.66
2023-03-11T18:31:28.843Z,98293.94
2023-03-11T18:34:04.921Z,98293.97
2023-03-11T18:36:38.540Z,98295.63
2023-03-11T18:39:06.653Z,98298.66
2023-03-11T18:41:35.666Z,98295.16
2023-03-11T18:44:05.948Z,98305.94
2023-03-11T18:46:33.394Z,98299.47
2023-03-11T18:49:02.716Z,98303.00
2023-03-11T18:51:32.489Z,98305.41
2023-03-11T18:54:00.265Z,98310.78
2023-03-11T18:56:27.580Z,98310.88
2023-03-11T18:58:56.012Z,98312.53
2023-03-11T19:01:23.231Z,98313.84
2023-03-11T19:04:00.543Z,98307.16
2023-03-11T19:06:29.998Z,98314.66
2023-03-11T19:09:00.674Z,98317.31
2023-03-11T19:11:27.564Z,98329.66
2023-03-11T19:13:54.963Z,98323.72
2023-03-11T19:16:28.012Z,98333.34
2023-03-11T19:18:55.880Z,98331.50
2023-03-11T19:21:24.112Z,98336.22
2023-03-11T19:23:52.829Z,98338.34
2023-03-11T19:26:21.042Z,98344.00
2023-03-11T19:28:50.688Z,98335.69
2023-03-11T19:31:17.736Z,98342.09
2023-03-11T19:33:47.047Z,98337.56
2023-03-11T19:36:14.891Z,98350.94
2023-03-11T19:38:45.164Z,98349.34
2023-03-11T19:41:18.329Z,98357.88
2023-03-11T19:43:47.359Z,98356.47
2023-03-11T19:46:18.029Z,98355.13
2023-03-11T19:48:44.942Z,98356.78
2023-03-11T19:51:14.379Z,98362.31
2023-03-11T19:53:41.695Z,98363.00
2023-03-11T19:56:12.659Z,98360.88
2023-03-11T19:58:49.532Z,98368.63
2023-03-11T20:01:21.120Z,98370.34
2023-03-11T20:03:48.306Z,98374.88
2023-03-11T20:06:18.293Z,98374.13
2023-03-11T20:08:45.271Z,98381.69
2023-03-11T20:11:16.929Z,98384.91
2023-03-11T20:13:44.137Z,98380.06
2023-03-11T20:16:18.536Z,98396.59
2023-03-11T20:18:50.365Z,98394.44
2023-03-11T20:21:18.025Z,98385.03
2023-03-11T20:23:44.857Z,98391.00
2023-03-11T20:26:19.114Z,98387.78
2023-03-11T20:28:46.748Z,98386.47
2023-03-11T20:31:25.892Z,98395.97
2023-03-11T20:33:55.441Z,98407.06
2023-03-11T20:36:30.472Z,98413.19
2023-03-11T20:38:57.831Z,98408.41
2023-03-11T20:41:28.576Z,98401.75
2023-03-11T20:43:57.318Z,98410.34
2023-03-11T20:46:26.020Z,98414.25
2023-03-11T20:48:52.997Z,98420.06
2023-03-11T20:51:21.088Z,98415.81
2023-03-11T20:53:49.036Z,98421.41
2023-03-11T20:56:20.713Z,98430.44
2023-03-11T20:58:51.712Z,98413.88
2023-03-11T21:01:27.057Z,98419.56
2023-03-11T21:03:57.937Z,98420.75
2023-03-11T21:06:55.299Z,98417.72
2023-03-11T21:09:22.188Z,98415.97
2023-03-11T21:11:49.393Z,98417.56
2023-03-11T21:14:18.566Z,98421.75
2023-03-11T21:16:46.276Z,98411.06
2023-03-11T21:19:13.905Z,98412.72
2023-03-11T21:21:41.685Z,98411.81
2023-03-11T21:24:11.179Z,98413.19
2023-03-11T21:26:38.762Z,98415.59
2023-03-11T21:29:06.127Z,98412.34
2023-03-11T21:31:33.458Z,98410.44
2023-03-11T21:34:01.350Z,98410.00
2023-03-11T21:36:29.737Z,98410.56
2023-03-11T21:38:56.812Z,98412.69
2023-03-11T21:41:26.646Z,98406.41
2023-03-11T21:43:56.471Z,98409.34
2023-03-11T21:46:27.861Z,98413.56
2023-03-11T21:48:58.470Z,98405.06
2023-03-11T21:51:29.224Z,98409.06
2023-03-11T21:53:56.729Z,98415.25
2023-03-11T21:56:26.448Z,98424.38
2023-03-11T21:58:53.752Z,98410.19
2023-03-11T22:01:20.763Z,98419.66
2023-03-11T22:03:50.919Z,98430.19
2023-03-11T22:06:17.982Z,98431.84
2023-03-11T22:08:50.302Z,98431.91
2023-03-11T22:11:19.335Z,98429.50
2023-03-11T22:13:52.835Z,98424.44
2023-03-11T22:16:22.081Z,98425.28
2023-03-11T22:18:50.109Z,98430.06
2023-03-11T22:21:18.707Z,98418.13
2023-03-11T22:23:46.415Z,98419.38
2023-03-11T22:26:14.888Z,98416.59
2023-03-11T22:28:42.051Z,98414.47
2023-03-11T22:31:12.691Z,98407.50
2023-03-11T22:33:40.568Z,98412.28
2023-03-11T22:36:09.096Z,98416.59
2023-03-11T22:38:36.895Z,98416.13
2023-03-11T22:41:07.756Z,98415.47
2023-03-11T22:43:36.201Z,98408.44
2023-03-11T22:46:05.175Z,98414.72
2023-03-11T22:48:33.841Z,98413.00
2023-03-11T22:51:00.974Z,98413.66
2023-03-11T22:53:31.097Z,98419.34
2023-03-11T22:55:58.014Z,98421.44
2023-03-11T22:58:24.881Z,98423.69
2023-03-11T23:00:51.821Z,98421.34
2023-03-11T23:03:19.936Z,98426.59
2023-03-11T23:05:46.856Z,98422.69
2023-03-11T23:08:16.283Z,98427.97
2023-03-11T23:10:49.674Z,98420.34
2023-03-11T23:13:16.866Z,98421.44
2023-03-11T23:15:45.818Z,98424.75
2023-03-11T23:18:17.380Z,98430.56
2023-03-11T23:20:44.450Z,98428.06
2023-03-11T23:23:13.605Z,98430.50
2023-03-11T23:25:41.585Z,98433.75
2023-03-11T23:28:18.268Z,98433.06
2023-03-11T23:30:48.192Z,98422.69
2023-03-11T23:33:19.637Z,98418.28
2023-03-11T23:35:52.463Z,98421.38
2023-03-11T23:38:41.774Z,98423.50
2023-03-11T23:41:15.346Z,98422.06
2023-03-11T23:43:43.160Z,98422.28
2023-03-11T23:46:10.715Z,98424.53
2023-03-11T23:48:41.608Z,98419.28
2023-03-11T23:51:09.285Z,98416.81
2023-03-11T23:53:37.787Z,98416.47
2023-03-11T23:56:14.670Z,98418.84
2023-03-11T23:58:41.537Z,98414.47
